Time;durP1;ratioP1;P1;durP2;ratioP2;P2;SDS_P1;SDS_P2;PMS_P1;PMS_P2;Temp;Humidity;BMP_temperature;BMP_pressure;BME280_temperature;BME280_humidity;BME280_pressure;Samples;Min_cycle;Max_cycle;Signal;HPM_P1;HPM_P2
2021/07/29 00:01:00;;;;;;;5.63;5.07;;;17.40;99.90;;;;;;5073033;28;20207;-50
2021/07/29 00:03:28;;;;;;;5.13;4.63;;;17.30;99.90;;;;;;5072852;28;20214;-50
2021/07/29 00:05:56;;;;;;;5.15;4.65;;;17.30;99.90;;;;;;5073055;28;20641;-48
2021/07/29 00:08:25;;;;;;;5.18;4.70;;;17.30;99.90;;;;;;5072906;28;20302;-48
2021/07/29 00:10:53;;;;;;;6.22;5.15;;;17.30;99.90;;;;;;5072839;28;20211;-46
2021/07/29 00:13:21;;;;;;;5.35;4.85;;;17.30;99.90;;;;;;5072660;28;20230;-52
2021/07/29 00:15:49;;;;;;;6.30;5.80;;;17.30;99.90;;;;;;5072953;28;20211;-48
2021/07/29 00:21:02;;;;;;;5.63;5.07;;;17.40;99.90;;;;;;5072660;28;20237;-47
2021/07/29 00:23:32;;;;;;;6.50;5.28;;;17.40;99.90;;;;;;5072497;28;20554;-46
2021/07/29 00:25:59;;;;;;;5.97;5.32;;;17.50;99.90;;;;;;5072766;28;20208;-51
2021/07/29 00:28:27;;;;;;;5.45;4.93;;;17.50;99.90;;;;;;5072608;28;20211;-47
2021/07/29 00:30:55;;;;;;;5.03;4.63;;;17.60;99.90;;;;;;5072596;28;20579;-50
2021/07/29 00:33:23;;;;;;;5.47;4.97;;;17.60;99.90;;;;;;5072262;28;20238;-48
2021/07/29 00:35:51;;;;;;;6.80;5.20;;;17.50;99.90;;;;;;5071625;28;20207;-47
2021/07/29 00:38:19;;;;;;;5.68;4.97;;;17.60;99.90;;;;;;5072296;28;20239;-49
2021/07/29 00:40:48;;;;;;;5.93;4.80;;;17.60;99.90;;;;;;5072302;28;20298;-49
2021/07/29 00:43:17;;;;;;;6.07;5.18;;;17.60;99.90;;;;;;5072108;28;20294;-45
2021/07/29 00:45:45;;;;;;;7.68;4.55;;;17.60;99.90;;;;;;5072252;28;20203;-46
2021/07/29 00:48:14;;;;;;;6.28;5.20;;;17.60;99.90;;;;;;5072106;28;20268;-45
2021/07/29 00:50:42;;;;;;;6.40;4.90;;;17.60;99.90;;;;;;5072338;28;20210;-45
2021/07/29 00:53:10;;;;;;;5.47;4.97;;;17.60;99.90;;;;;;5072259;28;20237;-49
2021/07/29 00:55:38;;;;;;;5.80;4.90;;;17.60;99.90;;;;;;5071971;28;20218;-48
2021/07/29 00:58:07;;;;;;;7.25;5.30;;;17.60;99.90;;;;;;5072016;28;20318;-47
2021/07/29 01:00:36;;;;;;;5.05;4.60;;;17.60;99.90;;;;;;5071990;28;20306;-46
2021/07/29 01:03:04;;;;;;;5.10;4.60;;;17.60;99.90;;;;;;5071913;28;20203;-47
2021/07/29 01:05:32;;;;;;;5.18;4.68;;;17.60;99.90;;;;;;5071971;28;20293;-46
2021/07/29 01:08:00;;;;;;;4.57;4.18;;;17.60;99.90;;;;;;5072114;28;20282;-48
2021/07/29 01:10:28;;;;;;;5.40;4.90;;;17.60;99.90;;;;;;5071866;28;20680;-47
2021/07/29 01:12:56;;;;;;;7.00;4.60;;;17.60;99.90;;;;;;5071850;28;20333;-45
2021/07/29 01:15:25;;;;;;;8.00;5.20;;;17.60;99.90;;;;;;5071650;28;20310;-46
2021/07/29 01:17:59;;;;;;;6.55;4.50;;;17.60;99.90;;;;;;5071848;28;20259;-48
2021/07/29 01:20:28;;;;;;;5.82;4.88;;;17.60;99.90;;;;;;5071732;28;20299;-49
2021/07/29 01:22:56;;;;;;;4.90;4.50;;;17.60;99.90;;;;;;5071700;28;20218;-45
2021/07/29 01:25:24;;;;;;;5.78;4.82;;;17.60;99.90;;;;;;5071844;28;20319;-49
2021/07/29 01:27:52;;;;;;;5.50;4.97;;;17.60;99.90;;;;;;5071652;28;20302;-49
2021/07/29 01:30:20;;;;;;;5.40;4.43;;;17.70;99.90;;;;;;5071715;28;20203;-46
2021/07/29 01:32:48;;;;;;;5.07;4.57;;;17.60;99.90;;;;;;5071733;28;20231;-47
2021/07/29 01:35:16;;;;;;;4.90;4.50;;;17.70;99.90;;;;;;5071687;28;20639;-49
2021/07/29 01:37:45;;;;;;;5.63;5.10;;;17.70;99.90;;;;;;5071631;28;20203;-49
2021/07/29 01:40:14;;;;;;;4.95;4.43;;;17.60;99.90;;;;;;5072051;28;20567;-45
2021/07/29 01:42:42;;;;;;;7.30;5.07;;;17.60;99.90;;;;;;5071471;28;20199;-47
2021/07/29 01:45:11;;;;;;;7.25;5.97;;;17.60;99.90;;;;;;5071706;28;20294;-50
2021/07/29 01:47:39;;;;;;;5.28;4.80;;;17.60;99.90;;;;;;5073947;28;20214;-49
2021/07/29 01:50:08;;;;;;;5.47;4.93;;;17.60;99.90;;;;;;5075664;28;20211;-46
2021/07/29 01:52:39;;;;;;;7.00;4.75;;;17.70;99.90;;;;;;5075465;28;20227;-47
2021/07/29 01:55:09;;;;;;;5.05;4.55;;;17.60;99.90;;;;;;5075290;28;20305;-48
2021/07/29 01:57:38;;;;;;;5.03;4.55;;;17.70;99.90;;;;;;5075572;28;20305;-46
2021/07/29 02:00:07;;;;;;;5.55;4.93;;;17.60;99.90;;;;;;5075427;28;20217;-51
2021/07/29 02:02:35;;;;;;;7.30;5.18;;;17.60;99.90;;;;;;5075463;28;20215;-50
2021/07/29 02:05:03;;;;;;;4.70;4.30;;;17.60;99.90;;;;;;5075325;28;20717;-49
2021/07/29 02:07:31;;;;;;;5.20;4.80;;;17.60;99.90;;;;;;5075068;28;20364;-46
2021/07/29 02:09:59;;;;;;;5.82;4.70;;;17.60;99.90;;;;;;5075071;28;20677;-48
2021/07/29 02:12:29;;;;;;;5.72;5.10;;;17.60;99.90;;;;;;5074245;28;20207;-49
2021/07/29 02:14:58;;;;;;;6.90;5.75;;;17.60;99.90;;;;;;5074886;28;20203;-50
2021/07/29 02:17:26;;;;;;;8.57;4.70;;;17.50;99.90;;;;;;5074636;28;20304;-46
2021/07/29 02:19:54;;;;;;;5.55;5.03;;;17.50;99.90;;;;;;5075055;28;20211;-48
2021/07/29 02:22:22;;;;;;;7.28;4.70;;;17.50;99.90;;;;;;5074690;28;20218;-48
2021/07/29 02:24:50;;;;;;;4.97;4.47;;;17.50;99.90;;;;;;5074386;28;20297;-49
2021/07/29 02:27:18;;;;;;;6.05;4.63;;;17.40;99.90;;;;;;5074684;28;20297;-48
2021/07/29 02:29:48;;;;;;;6.13;5.05;;;17.30;99.90;;;;;;5074513;28;20301;-46
2021/07/29 02:32:16;;;;;;;5.55;4.88;;;17.30;99.90;;;;;;5074577;28;20256;-50
2021/07/29 02:34:44;;;;;;;5.85;4.93;;;17.30;99.90;;;;;;5074245;28;20319;-47
2021/07/29 02:37:12;;;;;;;5.13;4.68;;;17.30;99.90;;;;;;5074198;28;20203;-45
2021/07/29 02:39:41;;;;;;;6.20;5.15;;;17.20;99.90;;;;;;5074129;28;20203;-47
2021/07/29 02:42:09;;;;;;;5.38;4.50;;;17.20;99.90;;;;;;5074223;28;20214;-47
2021/07/29 02:44:37;;;;;;;5.30;4.80;;;17.20;99.90;;;;;;5074032;28;20663;-50
2021/07/29 02:47:07;;;;;;;6.03;5.10;;;17.20;99.90;;;;;;5074262;28;20298;-48
2021/07/29 02:49:35;;;;;;;5.45;5.00;;;17.20;99.90;;;;;;5074067;28;20685;-49
2021/07/29 02:52:03;;;;;;;5.70;4.82;;;17.20;99.90;;;;;;5073919;28;20582;-47
2021/07/29 02:54:31;;;;;;;9.05;4.80;;;17.20;99.90;;;;;;5074030;28;20310;-46
2021/07/29 02:56:59;;;;;;;5.63;5.13;;;17.20;99.90;;;;;;5073945;28;20211;-47
2021/07/29 02:59:27;;;;;;;6.63;5.13;;;17.20;99.90;;;;;;5073119;28;20294;-48
2021/07/29 03:01:55;;;;;;;5.25;4.75;;;17.20;99.90;;;;;;5073897;28;20302;-46
2021/07/29 03:04:25;;;;;;;4.85;4.45;;;17.20;99.90;;;;;;5074141;28;20293;-48
2021/07/29 03:06:54;;;;;;;5.18;4.38;;;17.30;99.90;;;;;;5074078;28;20302;-48
2021/07/29 03:09:22;;;;;;;5.88;5.28;;;17.20;99.90;;;;;;5074114;28;20290;-46
2021/07/29 03:11:50;;;;;;;6.60;4.68;;;17.30;99.90;;;;;;5073876;28;20217;-48
2021/07/29 03:14:19;;;;;;;9.18;6.97;;;17.20;99.90;;;;;;5073705;28;20322;-48
2021/07/29 03:16:47;;;;;;;5.80;5.20;;;17.20;99.90;;;;;;5073763;28;20218;-47
2021/07/29 03:19:15;;;;;;;5.72;5.22;;;17.20;99.90;;;;;;5073443;28;20285;-48
2021/07/29 03:21:44;;;;;;;5.20;4.70;;;17.20;99.90;;;;;;5073706;28;20207;-48
2021/07/29 03:24:12;;;;;;;6.47;5.88;;;17.20;99.90;;;;;;5073473;28;20249;-48
2021/07/29 03:26:40;;;;;;;6.43;5.18;;;17.20;99.90;;;;;;5073553;28;20659;-48
2021/07/29 03:29:08;;;;;;;6.07;5.43;;;17.30;99.90;;;;;;5073632;28;20658;-46
2021/07/29 03:31:35;;;;;;;7.75;5.10;;;17.30;99.90;;;;;;5073636;28;20246;-48
2021/07/29 03:34:03;;;;;;;5.75;4.72;;;17.30;99.90;;;;;;5073445;28;20239;-49
2021/07/29 03:36:31;;;;;;;6.75;5.15;;;17.30;99.90;;;;;;5073775;28;20294;-47
2021/07/29 03:39:05;;;;;;;5.63;5.03;;;17.30;99.90;;;;;;5073415;28;20302;-46
2021/07/29 03:41:33;;;;;;;5.97;5.47;;;17.30;99.90;;;;;;5073182;28;20302;-46
2021/07/29 03:44:01;;;;;;;4.95;4.55;;;17.30;99.90;;;;;;5073345;28;20225;-50
2021/07/29 03:46:28;;;;;;;7.13;4.80;;;17.30;99.90;;;;;;5073273;28;20287;-49
2021/07/29 03:48:57;;;;;;;6.28;5.22;;;17.20;99.90;;;;;;5073040;28;20203;-46
2021/07/29 03:51:25;;;;;;;6.82;5.20;;;17.20;99.90;;;;;;5073060;28;20306;-47
2021/07/29 03:53:53;;;;;;;10.18;5.88;;;17.20;99.90;;;;;;5072791;28;20321;-46
2021/07/29 03:56:23;;;;;;;7.40;6.70;;;17.10;99.90;;;;;;5073177;28;20246;-46
2021/07/29 03:58:50;;;;;;;7.38;6.40;;;17.10;99.90;;;;;;5072875;28;20633;-50
2021/07/29 04:01:19;;;;;;;7.13;5.85;;;17.10;99.90;;;;;;5072569;28;20661;-46
2021/07/29 04:03:47;;;;;;;7.18;5.82;;;17.10;99.90;;;;;;5072442;28;20420;-48
2021/07/29 04:06:17;;;;;;;5.85;5.22;;;17.10;99.90;;;;;;5072259;28;20219;-47
2021/07/29 04:08:44;;;;;;;6.55;5.93;;;17.10;99.90;;;;;;5072360;28;20207;-48
2021/07/29 04:11:12;;;;;;;6.45;5.85;;;17.10;99.90;;;;;;5071483;28;20302;-47
2021/07/29 04:13:42;;;;;;;6.15;5.22;;;17.10;99.90;;;;;;5072197;28;20750;-48
2021/07/29 04:16:11;;;;;;;10.23;5.45;;;17.20;99.90;;;;;;5072175;28;20302;-45
2021/07/29 04:18:39;;;;;;;8.85;7.10;;;17.30;99.90;;;;;;5071946;28;20235;-49
2021/07/29 04:21:07;;;;;;;7.80;5.95;;;17.30;99.90;;;;;;5072162;28;20211;-47
2021/07/29 04:23:34;;;;;;;7.43;5.43;;;17.30;99.90;;;;;;5072495;28;20305;-45
2021/07/29 04:26:02;;;;;;;8.25;6.95;;;17.30;99.90;;;;;;5072268;28;20226;-48
2021/07/29 04:28:30;;;;;;;13.07;11.82;;;17.40;99.90;;;;;;5072140;28;20211;-45
2021/07/29 04:30:59;;;;;;;6.90;6.20;;;17.40;99.90;;;;;;5071985;28;20211;-46
2021/07/29 04:33:27;;;;;;;6.47;5.70;;;17.40;99.90;;;;;;5072437;28;20270;-47
2021/07/29 04:35:55;;;;;;;6.60;5.90;;;17.40;99.90;;;;;;5072415;28;20227;-46
2021/07/29 04:38:23;;;;;;;7.05;4.63;;;17.30;99.90;;;;;;5072671;28;20295;-45
2021/07/29 04:41:01;;;;;;;5.75;5.15;;;17.30;99.90;;;;;;5072536;28;20208;-46
2021/07/29 04:43:29;;;;;;;7.35;5.07;;;17.30;99.90;;;;;;5072333;28;20328;-46
2021/07/29 04:46:01;;;;;;;5.65;5.13;;;17.30;99.90;;;;;;5072152;28;20209;-47
2021/07/29 04:48:29;;;;;;;7.80;5.45;;;17.40;99.90;;;;;;5072476;28;20203;-46
2021/07/29 04:51:01;;;;;;;6.60;5.68;;;17.50;99.90;;;;;;5072507;28;20238;-46
2021/07/29 04:53:29;;;;;;;11.35;7.95;;;17.70;99.90;;;;;;5072235;28;20218;-45
2021/07/29 04:55:57;;;;;;;7.22;6.18;;;17.80;99.90;;;;;;5072313;28;20314;-44
2021/07/29 04:58:25;;;;;;;11.10;6.22;;;17.90;99.90;;;;;;5072104;28;20298;-46
2021/07/29 05:00:53;;;;;;;7.35;5.40;;;18.00;99.90;;;;;;5072357;28;20610;-46
2021/07/29 05:03:23;;;;;;;6.43;5.75;;;18.10;99.90;;;;;;5072181;28;20207;-45
2021/07/29 05:05:51;;;;;;;5.70;5.20;;;18.20;99.90;;;;;;5072144;28;20208;-48
2021/07/29 05:08:19;;;;;;;6.45;4.80;;;18.20;99.90;;;;;;5072032;28;20257;-44
2021/07/29 05:10:47;;;;;;;9.30;5.13;;;18.20;99.90;;;;;;5071918;28;20209;-48
2021/07/29 05:13:15;;;;;;;5.97;4.80;;;18.20;99.90;;;;;;5071975;28;20214;-45
2021/07/29 05:15:43;;;;;;;6.55;4.30;;;18.20;99.90;;;;;;5071976;28;20231;-45
2021/07/29 05:18:11;;;;;;;7.00;5.05;;;18.20;99.90;;;;;;5071729;28;20334;-45
2021/07/29 05:20:40;;;;;;;10.93;4.70;;;18.20;99.90;;;;;;5071946;28;20728;-45
2021/07/29 05:23:08;;;;;;;8.57;5.03;;;18.20;99.90;;;;;;5071464;28;20225;-45
2021/07/29 05:25:36;;;;;;;6.68;4.88;;;18.30;99.90;;;;;;5071730;28;20204;-46
2021/07/29 05:28:04;;;;;;;6.47;4.47;;;18.30;99.90;;;;;;5071997;28;20208;-47
2021/07/29 05:30:32;;;;;;;5.70;4.93;;;18.40;99.90;;;;;;5071751;28;20307;-45
2021/07/29 05:33:00;;;;;;;13.05;5.35;;;18.40;99.90;;;;;;5071645;28;20211;-45
2021/07/29 05:35:28;;;;;;;8.73;4.68;;;18.50;99.90;;;;;;5071572;28;20231;-45
2021/07/29 05:37:57;;;;;;;9.13;5.28;;;18.60;99.90;;;;;;5071560;28;20328;-47
2021/07/29 05:40:25;;;;;;;7.00;4.32;;;18.70;99.90;;;;;;5071809;28;20295;-47
2021/07/29 05:42:53;;;;;;;7.88;4.95;;;18.70;99.90;;;;;;5071617;28;20623;-47
2021/07/29 05:45:21;;;;;;;6.55;4.45;;;18.80;99.90;;;;;;5071406;28;20688;-49
2021/07/29 05:47:49;;;;;;;8.43;5.35;;;18.90;99.90;;;;;;5071513;28;20310;-47
2021/07/29 05:50:17;;;;;;;6.95;4.88;;;19.00;99.90;;;;;;5071457;28;20302;-50
2021/07/29 05:52:45;;;;;;;6.47;4.88;;;19.00;99.90;;;;;;5071581;28;20301;-47
2021/07/29 05:55:14;;;;;;;5.97;4.90;;;19.10;99.90;;;;;;5071402;28;20233;-48
2021/07/29 05:57:42;;;;;;;6.57;4.63;;;19.10;99.90;;;;;;5071215;28;20311;-47
2021/07/29 06:00:11;;;;;;;5.35;4.22;;;19.20;99.90;;;;;;5071401;28;20207;-48
2021/07/29 06:02:39;;;;;;;6.88;4.40;;;19.30;99.90;;;;;;5071410;28;20290;-48
2021/07/29 06:05:08;;;;;;;5.63;4.22;;;19.30;99.90;;;;;;5071463;28;20200;-48
2021/07/29 06:07:36;;;;;;;6.95;4.00;;;19.40;99.90;;;;;;5071318;28;20667;-48
2021/07/29 06:10:04;;;;;;;5.65;4.15;;;19.40;99.90;;;;;;5071211;28;20230;-52
2021/07/29 06:12:33;;;;;;;5.28;4.20;;;19.40;99.90;;;;;;5071477;28;20257;-50
2021/07/29 06:15:02;;;;;;;6.22;4.72;;;19.40;99.90;;;;;;5071374;28;20223;-47
2021/07/29 06:17:32;;;;;;;8.07;4.72;;;19.40;99.90;;;;;;5071109;28;20726;-49
2021/07/29 06:20:05;;;;;;;5.15;3.88;;;19.50;99.90;;;;;;5071339;28;20215;-47
2021/07/29 06:22:33;;;;;;;5.90;4.03;;;19.40;99.90;;;;;;5071220;28;20216;-48
2021/07/29 06:25:04;;;;;;;4.10;3.70;;;19.40;99.90;;;;;;5071169;28;20685;-48
2021/07/29 06:27:34;;;;;;;5.47;4.63;;;19.50;99.90;;;;;;5071121;28;20299;-46
2021/07/29 06:30:02;;;;;;;5.13;4.30;;;19.50;99.90;;;;;;5071187;28;20211;-48
2021/07/29 06:32:30;;;;;;;6.22;5.60;;;19.60;99.90;;;;;;5071186;28;20302;-49
2021/07/29 06:34:57;;;;;;;4.57;4.13;;;19.70;99.90;;;;;;5073906;28;20218;-48
2021/07/29 06:37:25;;;;;;;6.38;4.40;;;19.80;99.90;;;;;;5074741;28;20211;-47
2021/07/29 06:39:54;;;;;;;4.43;3.95;;;19.90;99.90;;;;;;5074620;28;20207;-47
2021/07/29 06:42:22;;;;;;;5.68;3.67;;;20.10;99.90;;;;;;5074554;28;20392;-51
2021/07/29 06:44:52;;;;;;;4.03;3.60;;;20.30;99.90;;;;;;5074585;28;20208;-47
2021/07/29 06:47:20;;;;;;;4.53;3.60;;;20.50;99.90;;;;;;5074434;28;20306;-49
2021/07/29 06:49:48;;;;;;;4.13;3.78;;;20.70;99.90;;;;;;5074834;28;20637;-51
2021/07/29 06:52:17;;;;;;;4.45;3.78;;;20.90;99.90;;;;;;5074465;28;20215;-48
2021/07/29 06:54:45;;;;;;;4.35;3.25;;;21.00;99.90;;;;;;5074227;28;20211;-51
2021/07/29 06:57:13;;;;;;;6.15;3.78;;;21.10;99.90;;;;;;5074140;28;20642;-47
2021/07/29 06:59:41;;;;;;;3.65;3.20;;;21.10;99.90;;;;;;5074233;28;20298;-48
2021/07/29 07:02:10;;;;;;;4.82;4.28;;;21.10;99.90;;;;;;5074155;28;20644;-54
2021/07/29 07:04:39;;;;;;;4.07;3.63;;;21.10;99.90;;;;;;5074125;28;20204;-48
2021/07/29 07:07:14;;;;;;;4.97;4.45;;;21.20;99.90;;;;;;5074171;28;20207;-51
2021/07/29 07:09:42;;;;;;;5.07;3.50;;;21.30;99.90;;;;;;5074067;28;20240;-48
2021/07/29 07:12:11;;;;;;;3.58;3.28;;;21.50;99.90;;;;;;5074244;28;20219;-49
2021/07/29 07:14:39;;;;;;;4.10;3.42;;;21.60;99.90;;;;;;5073914;28;20691;-50
2021/07/29 07:17:07;;;;;;;4.10;3.47;;;21.70;99.90;;;;;;5073987;28;20262;-50
2021/07/29 07:19:37;;;;;;;4.00;3.22;;;21.80;99.90;;;;;;5073749;28;20789;-49
2021/07/29 07:22:06;;;;;;;3.08;2.80;;;21.80;99.90;;;;;;5073849;28;20227;-53
2021/07/29 07:24:35;;;;;;;3.65;3.35;;;21.90;99.90;;;;;;5074010;28;20614;-54
2021/07/29 07:27:05;;;;;;;2.97;2.72;;;22.00;99.90;;;;;;5073702;28;20662;-50
2021/07/29 07:29:34;;;;;;;4.00;2.95;;;22.10;99.90;;;;;;5073585;28;20211;-52
2021/07/29 07:32:03;;;;;;;6.10;2.88;;;22.10;99.90;;;;;;5073318;28;20616;-53
2021/07/29 07:34:31;;;;;;;3.35;3.05;;;22.10;99.90;;;;;;5072958;28;20567;-53
2021/07/29 07:37:00;;;;;;;2.92;2.72;;;22.10;99.90;;;;;;5073241;28;20303;-51
2021/07/29 07:39:28;;;;;;;4.32;3.05;;;22.10;99.90;;;;;;5073407;28;20203;-51
2021/07/29 07:41:56;;;;;;;5.93;2.72;;;22.20;99.90;;;;;;5073528;28;20218;-52
2021/07/29 07:44:24;;;;;;;3.05;2.85;;;22.20;99.90;;;;;;5073213;28;20290;-49
2021/07/29 07:46:52;;;;;;;3.25;3.05;;;22.30;99.90;;;;;;5073482;28;20287;-50
2021/07/29 07:49:20;;;;;;;3.45;3.15;;;22.30;99.90;;;;;;5073678;28;20261;-51
2021/07/29 07:51:48;;;;;;;3.20;2.90;;;22.30;99.90;;;;;;5073391;28;20650;-51
2021/07/29 07:54:17;;;;;;;4.80;4.07;;;22.30;99.90;;;;;;5073360;28;20227;-54
2021/07/29 07:56:45;;;;;;;3.85;2.90;;;22.40;99.90;;;;;;5073304;28;20223;-50
2021/07/29 07:59:13;;;;;;;5.47;3.80;;;22.40;99.90;;;;;;5073379;28;20218;-53
2021/07/29 08:01:44;;;;;;;3.45;3.15;;;22.30;99.90;;;;;;5072517;28;20298;-53
2021/07/29 08:04:12;;;;;;;3.55;3.25;;;22.40;99.90;;;;;;5072916;28;20214;-53
2021/07/29 08:06:40;;;;;;;3.05;2.85;;;22.40;99.90;;;;;;5072601;28;20297;-53
2021/07/29 08:09:08;;;;;;;3.30;3.00;;;22.50;99.90;;;;;;5073070;28;20215;-53
2021/07/29 08:11:37;;;;;;;2.60;2.40;;;22.60;99.90;;;;;;5073062;28;20240;-53
2021/07/29 08:14:05;;;;;;;6.72;3.50;;;22.60;99.90;;;;;;5073010;28;20286;-53
2021/07/29 08:16:37;;;;;;;3.22;2.90;;;22.60;99.90;;;;;;5072986;28;20280;-52
2021/07/29 08:19:05;;;;;;;3.83;3.45;;;22.60;99.90;;;;;;5072829;28;20279;-51
2021/07/29 08:21:33;;;;;;;4.03;3.63;;;22.70;99.90;;;;;;5072540;28;20235;-52
2021/07/29 08:24:02;;;;;;;5.10;3.38;;;22.80;99.90;;;;;;5072170;28;20238;-52
2021/07/29 08:26:29;;;;;;;5.05;3.47;;;22.80;99.90;;;;;;5072143;28;20199;-53
2021/07/29 08:28:59;;;;;;;3.17;2.88;;;22.90;99.90;;;;;;5072089;28;20649;-51
2021/07/29 08:31:27;;;;;;;4.35;2.95;;;23.00;99.50;;;;;;5072163;28;20250;-54
2021/07/29 08:33:55;;;;;;;3.33;3.00;;;23.00;99.30;;;;;;5072413;28;20566;-55
2021/07/29 08:36:23;;;;;;;4.15;3.75;;;23.00;98.40;;;;;;5072559;28;20592;-52
2021/07/29 08:38:51;;;;;;;4.05;3.60;;;23.00;98.30;;;;;;5072457;28;20589;-53
2021/07/29 08:41:19;;;;;;;3.25;3.05;;;23.00;97.80;;;;;;5072302;28;20211;-53
2021/07/29 08:43:48;;;;;;;3.28;2.97;;;22.90;97.70;;;;;;5072322;28;20241;-53
2021/07/29 08:46:21;;;;;;;3.47;3.17;;;23.00;97.60;;;;;;5072592;28;20230;-52
2021/07/29 08:48:51;;;;;;;4.85;2.92;;;23.10;97.40;;;;;;5072325;28;20215;-50
2021/07/29 08:51:22;;;;;;;4.10;3.72;;;23.30;97.50;;;;;;5071828;28;20374;-52
2021/07/29 08:53:50;;;;;;;3.15;2.95;;;23.40;97.40;;;;;;5072035;28;20302;-54
2021/07/29 08:56:18;;;;;;;3.88;3.58;;;23.50;97.30;;;;;;5071494;28;20208;-53
2021/07/29 08:58:46;;;;;;;4.50;3.13;;;23.70;97.10;;;;;;5071726;28;20372;-50
2021/07/29 09:01:14;;;;;;;3.35;3.05;;;24.00;96.50;;;;;;5072037;28;20290;-52
2021/07/29 09:03:44;;;;;;;4.28;3.35;;;24.30;96.20;;;;;;5071920;28;20207;-52
2021/07/29 09:06:14;;;;;;;4.32;3.17;;;24.40;95.90;;;;;;5071829;28;20211;-51
2021/07/29 09:08:44;;;;;;;4.97;3.70;;;24.60;95.80;;;;;;5071830;28;20215;-52
2021/07/29 09:11:34;;;;;;;4.72;3.42;;;24.80;95.40;;;;;;5071751;28;20239;-53
2021/07/29 09:14:05;;;;;;;3.50;3.20;;;25.10;93.50;;;;;;5071749;28;20207;-52
2021/07/29 09:16:37;;;;;;;4.25;3.40;;;25.20;93.70;;;;;;5071677;28;20255;-54
2021/07/29 09:19:07;;;;;;;3.35;3.05;;;25.20;93.70;;;;;;5071562;28;20254;-53
2021/07/29 09:21:34;;;;;;;2.95;2.75;;;24.90;93.50;;;;;;5071756;28;20217;-52
2021/07/29 09:24:08;;;;;;;3.42;3.13;;;24.80;93.50;;;;;;5071696;28;20234;-50
2021/07/29 09:26:54;;;;;;;3.47;3.17;;;24.80;93.20;;;;;;5071669;28;20693;-49
2021/07/29 09:29:23;;;;;;;3.10;2.80;;;25.00;92.50;;;;;;5071856;28;20250;-51
2021/07/29 09:32:03;;;;;;;3.13;2.92;;;25.00;92.70;;;;;;5071805;28;20324;-54
2021/07/29 09:34:44;;;;;;;4.25;3.20;;;25.30;92.40;;;;;;5071681;28;20213;-54
2021/07/29 09:37:12;;;;;;;3.30;3.00;;;25.40;91.90;;;;;;5071674;28;20788;-53
2021/07/29 09:39:41;;;;;;;4.30;2.78;;;25.40;91.90;;;;;;5071554;28;20662;-48
2021/07/29 09:42:20;;;;;;;3.78;3.47;;;25.40;91.80;;;;;;5071408;28;20306;-47
2021/07/29 09:44:49;;;;;;;3.28;2.85;;;25.30;91.80;;;;;;5071760;28;20295;-52
2021/07/29 09:47:18;;;;;;;2.92;2.72;;;25.20;92.10;;;;;;5071760;28;20282;-49
2021/07/29 09:49:51;;;;;;;3.53;3.22;;;25.00;92.10;;;;;;5071583;28;20234;-49
2021/07/29 09:52:20;;;;;;;3.40;3.10;;;24.90;92.40;;;;;;5071715;28;20213;-49
2021/07/29 09:54:48;;;;;;;4.28;3.90;;;24.90;92.60;;;;;;5071655;28;20211;-53
2021/07/29 09:57:17;;;;;;;4.00;3.70;;;24.80;92.80;;;;;;5071760;28;20230;-51
2021/07/29 09:59:45;;;;;;;5.63;3.78;;;24.70;93.00;;;;;;5071528;28;20294;-53
2021/07/29 10:02:13;;;;;;;3.95;3.55;;;24.70;93.00;;;;;;5071485;28;20666;-53
2021/07/29 10:04:44;;;;;;;3.47;3.20;;;24.70;92.90;;;;;;5071449;28;20552;-53
2021/07/29 10:07:26;;;;;;;4.30;3.88;;;24.70;93.10;;;;;;5071712;28;20302;-55
2021/07/29 10:09:57;;;;;;;3.85;3.47;;;24.70;93.20;;;;;;5074366;28;20269;-52
2021/07/29 10:12:29;;;;;;;3.47;3.17;;;24.70;93.40;;;;;;5075049;28;20207;-54
2021/07/29 10:14:58;;;;;;;4.47;3.47;;;24.70;93.60;;;;;;5075162;28;20242;-52
2021/07/29 10:18:01;;;;;;;3.67;3.38;;;24.70;93.70;;;;;;5075042;28;20271;-54
2021/07/29 10:20:32;;;;;;;4.40;4.00;;;24.60;93.90;;;;;;5075388;28;20211;-52
2021/07/29 10:23:32;;;;;;;3.72;3.42;;;24.50;94.00;;;;;;5075124;28;20302;-55
2021/07/29 10:26:12;;;;;;;5.45;4.97;;;24.40;94.10;;;;;;5032889;28;20688;-53
2021/07/29 10:28:40;;;;;;;5.63;4.32;;;24.30;94.70;;;;;;5069285;28;20203;-51
2021/07/29 10:31:13;;;;;;;5.10;3.80;;;24.40;94.50;;;;;;5074899;28;20670;-56
2021/07/29 10:33:43;;;;;;;4.45;4.00;;;24.60;94.40;;;;;;5074352;28;20243;-54
2021/07/29 10:36:45;;;;;;;3.70;3.40;;;24.70;94.30;;;;;;5074787;28;20618;-51
2021/07/29 10:39:15;;;;;;;4.75;4.22;;;24.80;93.50;;;;;;5074411;28;20712;-51
2021/07/29 10:41:48;;;;;;;4.50;3.97;;;24.80;93.50;;;;;;5074454;28;20712;-54
2021/07/29 10:44:47;;;;;;;3.97;3.67;;;25.00;93.20;;;;;;5074465;28;20298;-53
2021/07/29 10:47:36;;;;;;;4.10;3.70;;;25.10;92.80;;;;;;5074535;28;20211;-52
2021/07/29 10:50:22;;;;;;;3.85;3.55;;;25.10;92.70;;;;;;5074061;28;20211;-52
2021/07/29 10:52:51;;;;;;;5.07;4.10;;;25.20;92.60;;;;;;5074175;28;20711;-54
2021/07/29 10:55:22;;;;;;;4.45;3.50;;;25.20;92.50;;;;;;5074467;28;20243;-49
2021/07/29 10:58:11;;;;;;;3.67;3.38;;;25.30;92.30;;;;;;5074149;28;20235;-53
2021/07/29 11:00:52;;;;;;;4.10;3.55;;;25.40;91.70;;;;;;5074093;28;20310;-54
2021/07/29 11:03:23;;;;;;;4.28;3.90;;;25.40;91.70;;;;;;5073423;28;20677;-51
2021/07/29 11:06:03;;;;;;;4.25;3.95;;;25.50;91.80;;;;;;5073809;28;20309;-55
2021/07/29 11:08:31;;;;;;;3.92;3.63;;;25.30;91.70;;;;;;5073810;28;20234;-55
2021/07/29 11:11:02;;;;;;;4.50;4.13;;;25.30;91.90;;;;;;5073858;28;20290;-55
2021/07/29 11:13:31;;;;;;;5.43;3.83;;;25.30;91.80;;;;;;5074355;28;20265;-55
2021/07/29 11:16:01;;;;;;;3.95;3.65;;;25.40;91.80;;;;;;5073770;28;20630;-53
2021/07/29 11:18:29;;;;;;;6.65;3.75;;;25.40;91.70;;;;;;5073674;28;20605;-51
2021/07/29 11:20:57;;;;;;;4.32;3.95;;;25.50;91.60;;;;;;5073362;28;20214;-54
2021/07/29 11:23:35;;;;;;;5.57;4.78;;;25.60;91.40;;;;;;5073616;28;20579;-53
2021/07/29 11:26:06;;;;;;;5.30;3.38;;;25.80;91.00;;;;;;5073678;28;20297;-55
2021/07/29 11:28:35;;;;;;;4.55;4.18;;;26.00;91.20;;;;;;5073573;28;20721;-54
2021/07/29 11:31:20;;;;;;;4.22;3.83;;;26.20;90.90;;;;;;5073626;28;20283;-53
2021/07/29 11:33:50;;;;;;;3.88;3.58;;;26.30;90.60;;;;;;5073658;28;20318;-54
2021/07/29 11:36:18;;;;;;;4.00;3.70;;;26.30;90.40;;;;;;5073514;28;20211;-52
2021/07/29 11:38:55;;;;;;;4.47;4.15;;;26.40;90.30;;;;;;5073635;28;20228;-49
2021/07/29 11:41:25;;;;;;;4.53;4.13;;;26.50;89.40;;;;;;5073442;28;20294;-49
2021/07/29 11:43:54;;;;;;;4.00;3.58;;;26.50;89.60;;;;;;5073593;28;20203;-53
2021/07/29 11:46:22;;;;;;;5.80;4.15;;;26.60;88.80;;;;;;5073268;28;20235;-51
2021/07/29 11:49:02;;;;;;;4.32;3.92;;;26.70;88.40;;;;;;5072948;28;20242;-53
2021/07/29 11:51:31;;;;;;;5.75;4.82;;;26.90;87.50;;;;;;5073834;28;20222;-52
2021/07/29 11:53:59;;;;;;;4.20;3.80;;;27.00;88.10;;;;;;5073811;28;20235;-51
2021/07/29 11:56:28;;;;;;;4.18;3.83;;;27.00;86.80;;;;;;5073315;28;20298;-51
2021/07/29 11:58:58;;;;;;;4.53;3.55;;;27.00;86.10;;;;;;5073478;28;20229;-51
2021/07/29 12:01:27;;;;;;;3.75;3.45;;;26.80;86.10;;;;;;5073366;28;20198;-55
2021/07/29 12:03:57;;;;;;;4.45;4.05;;;26.90;86.30;;;;;;5073141;28;20222;-54
2021/07/29 12:06:26;;;;;;;4.60;4.20;;;26.90;85.40;;;;;;5073153;28;20302;-52
2021/07/29 12:08:55;;;;;;;4.30;3.80;;;27.00;85.40;;;;;;5072930;28;20215;-51
2021/07/29 12:11:29;;;;;;;5.22;4.60;;;27.00;85.00;;;;;;5072814;28;20687;-51
2021/07/29 12:13:58;;;;;;;4.15;3.85;;;27.10;84.70;;;;;;5072732;28;20360;-52
2021/07/29 12:16:42;;;;;;;5.35;3.63;;;27.20;84.90;;;;;;5072737;28;20673;-50
2021/07/29 12:19:11;;;;;;;4.65;4.22;;;27.10;85.10;;;;;;5072270;28;20289;-50
2021/07/29 12:21:39;;;;;;;4.43;3.83;;;27.10;85.40;;;;;;5072429;28;20218;-51
2021/07/29 12:24:07;;;;;;;4.25;3.85;;;27.20;85.00;;;;;;5072122;28;20212;-52
2021/07/29 12:26:37;;;;;;;3.95;3.65;;;27.10;84.80;;;;;;5072492;28;20246;-51
2021/07/29 12:29:07;;;;;;;4.82;4.43;;;26.90;85.30;;;;;;5072571;28;20249;-54
2021/07/29 12:31:45;;;;;;;4.80;4.40;;;26.80;86.60;;;;;;5071715;28;20223;-54
2021/07/29 12:34:14;;;;;;;4.47;4.15;;;26.70;85.90;;;;;;5072361;28;20264;-54
2021/07/29 12:36:44;;;;;;;4.63;4.22;;;26.60;85.90;;;;;;5072809;28;20226;-52
2021/07/29 12:39:13;;;;;;;4.45;4.13;;;26.40;85.20;;;;;;5072093;28;20317;-54
2021/07/29 12:41:44;;;;;;;5.68;4.35;;;26.20;85.50;;;;;;5072521;28;20212;-55
2021/07/29 12:44:15;;;;;;;4.68;4.30;;;26.20;84.80;;;;;;5072346;28;20229;-52
2021/07/29 12:46:44;;;;;;;4.97;4.20;;;26.30;85.00;;;;;;5072293;28;20691;-52
2021/07/29 12:49:14;;;;;;;4.22;3.88;;;26.30;84.80;;;;;;5072785;28;20207;-56
2021/07/29 12:51:48;;;;;;;5.47;4.50;;;26.40;84.70;;;;;;5072609;28;20265;-53
2021/07/29 12:54:17;;;;;;;4.50;4.10;;;26.50;84.90;;;;;;5072615;28;20672;-51
2021/07/29 12:57:03;;;;;;;5.75;4.43;;;26.60;85.10;;;;;;5072532;28;20219;-50
2021/07/29 12:59:31;;;;;;;3.72;3.53;;;26.70;84.60;;;;;;5072209;28;20322;-51
2021/07/29 13:01:59;;;;;;;4.63;4.22;;;26.70;85.60;;;;;;5072542;28;20230;-50